VTUL

Details ICAO VTUL (LOE)
Name Loei
Region Thailand
Timezone Asia/Bangkok (UTC+7.0)
Plans Departing 5
Arriving 4
Stats Elevation 860 ft / 262 m (AMSL)
Location 17.439132° 101.722065°
Runways 1
Magnetic Variation 0.814° W
Sunrise 2018-05-21 22:40:43 UTC / 2018-05-22 05:40:43 Local
Sunset 2018-05-22 11:41:39 UTC / 2018-05-22 18:41:39 Local
Advertisement - Login to hide

Runways

ID Width Length Bearing (true) Bearing (mag) Surface Threshold Offset Overrun Length
01 148 ft / 45 m 6,935 ft / 2,114 m 16.75° 17.56° Asphalt 0 ft / 0 m 205 ft / 62 m
19 148 ft / 45 m 6,935 ft / 2,114 m 196.75° 197.56° Asphalt 0 ft / 0 m 210 ft / 64 m

Map

Weather


0- 5 10 15 20 25 30 35+ Temperature / ° C

Clouds and Precipitation
Forecast for 2018-05-22 00:00 UTC. Updated 4 hours ago

Ground ~20,000 ft ~40,000 ft Winds

METAR

VTUL 220300Z 00000KT 4000 -RA BR FEW005 BKN020 OVC070 23/23 Q1013 RERA NOSIG

TAF

TAF VTUL 212300Z 2200/2224 22005KT 7000 SCT020 SCT100 TEMPO 2200/2202 VRB10G20KT 5000 TSRA FEW018CB BKN020 BKN080 TEMPO 2206/2212 VRB10G20KT 5000 TSRA FEW018CB BKN020 BKN080

Frequencies

Tower 122.50 MHz TWR
Approach 126.20 MHz APP
Approach 122.55 MHz APP
Warning: Do not use this data for real-world aviation or navigation. No guarantee of current accuracy is given.